Time;durP1;ratioP1;P1;durP2;ratioP2;P2;SDS_P1;SDS_P2;PMS_P1;PMS_P2;Temp;Humidity;BMP_temperature;BMP_pressure;BME280_temperature;BME280_humidity;BME280_pressure;Samples;Min_cycle;Max_cycle;Signal;HPM_P1;HPM_P2
2021/01/10 00:01:17;;;;;;;32.53;17.25;;;;;;;;;;5025710;28;20025;-70
2021/01/10 00:03:43;;;;;;;23.92;9.50;;;;;;;;;;5020183;28;20029;-70
2021/01/10 00:06:09;;;;;;;9.98;2.58;;;;;;;;;;5025409;28;20071;-70
2021/01/10 00:08:35;;;;;;;16.27;2.30;;;;;;;;;;5027291;28;20491;-70
2021/01/10 00:11:01;;;;;;;9.77;1.42;;;;;;;;;;5027169;28;20040;-70
2021/01/10 00:13:27;;;;;;;6.70;1.58;;;;;;;;;;5020807;28;20034;-70
2021/01/10 00:15:55;;;;;;;10.30;1.40;;;;;;;;;;5025488;28;20072;-71
2021/01/10 00:18:21;;;;;;;13.20;1.60;;;;;;;;;;5023917;28;20017;-74
2021/01/10 00:20:47;;;;;;;8.43;1.38;;;;;;;;;;5024130;28;20041;-74
2021/01/10 00:23:13;;;;;;;9.80;1.30;;;;;;;;;;5022360;28;20014;-74
2021/01/10 00:25:39;;;;;;;3.22;1.20;;;;;;;;;;5026673;28;20025;-74
2021/01/10 00:28:05;;;;;;;5.80;1.40;;;;;;;;;;5029534;28;20030;-74
2021/01/10 00:30:31;;;;;;;6.05;1.05;;;;;;;;;;5029654;28;20021;-74
2021/01/10 00:32:57;;;;;;;9.65;1.23;;;;;;;;;;5026030;28;20030;-74
2021/01/10 00:35:24;;;;;;;11.43;1.80;;;;;;;;;;5025824;28;20088;-74
2021/01/10 00:37:54;;;;;;;13.02;3.50;;;;;;;;;;5029504;28;20029;-75
2021/01/10 00:40:21;;;;;;;8.90;1.75;;;;;;;;;;5028842;28;20052;-74
2021/01/10 00:42:48;;;;;;;4.72;1.40;;;;;;;;;;5023046;28;20030;-74
2021/01/10 00:45:15;;;;;;;6.65;1.25;;;;;;;;;;5029621;28;20549;-75
2021/01/10 00:47:41;;;;;;;7.55;1.27;;;;;;;;;;5029130;28;20049;-74
2021/01/10 00:50:08;;;;;;;7.20;1.30;;;;;;;;;;5029059;28;20041;-74
2021/01/10 00:52:34;;;;;;;4.35;1.00;;;;;;;;;;5025841;28;20026;-74
2021/01/10 00:55:00;;;;;;;4.15;1.05;;;;;;;;;;5028236;28;20490;-74
2021/01/10 00:57:26;;;;;;;5.15;2.13;;;;;;;;;;5035327;28;20186;-74
2021/01/10 00:59:52;;;;;;;7.80;1.58;;;;;;;;;;5029403;28;20217;-74
2021/01/10 01:02:18;;;;;;;5.35;1.27;;;;;;;;;;5027834;28;20226;-74
2021/01/10 01:04:45;;;;;;;5.05;1.13;;;;;;;;;;5032961;28;20406;-74
2021/01/10 01:07:12;;;;;;;4.38;1.50;;;;;;;;;;5032303;28;20517;-74
2021/01/10 01:09:38;;;;;;;8.75;1.88;;;;;;;;;;5033490;28;20559;-74
2021/01/10 01:12:04;;;;;;;9.35;1.92;;;;;;;;;;5030053;28;20026;-74
2021/01/10 01:14:30;;;;;;;10.05;2.92;;;;;;;;;;5033128;28;20494;-74
2021/01/10 01:16:56;;;;;;;5.45;2.40;;;;;;;;;;5032204;28;20567;-74
2021/01/10 01:19:23;;;;;;;6.85;2.40;;;;;;;;;;5031352;28;20136;-71
2021/01/10 01:21:52;;;;;;;10.77;2.95;;;;;;;;;;5032367;28;20022;-74
2021/01/10 01:24:19;;;;;;;9.27;2.60;;;;;;;;;;5019364;28;20087;-71
2021/01/10 01:26:46;;;;;;;14.55;2.60;;;;;;;;;;5030832;28;20041;-71
2021/01/10 01:29:13;;;;;;;9.00;2.38;;;;;;;;;;5032920;28;20083;-72
2021/01/10 01:31:39;;;;;;;12.02;2.65;;;;;;;;;;5032726;28;20022;-71
2021/01/10 01:34:05;;;;;;;9.13;1.85;;;;;;;;;;5029576;28;20029;-72
2021/01/10 01:36:31;;;;;;;7.00;2.50;;;;;;;;;;5030429;28;20104;-72
2021/01/10 01:38:57;;;;;;;9.40;1.80;;;;;;;;;;5032162;28;20021;-72
2021/01/10 01:41:24;;;;;;;8.70;2.08;;;;;;;;;;5031900;28;20030;-72
2021/01/10 01:43:51;;;;;;;10.32;1.70;;;;;;;;;;5017464;28;20026;-72
2021/01/10 01:46:37;;;;;;;7.47;1.67;;;;;;;;;;5030437;28;20030;-72
2021/01/10 01:49:05;;;;;;;7.63;1.70;;;;;;;;;;5030091;28;20033;-73
2021/01/10 01:51:31;;;;;;;8.93;2.40;;;;;;;;;;5032373;28;20029;-73
2021/01/10 01:53:58;;;;;;;6.40;1.48;;;;;;;;;;5029759;28;20045;-73
2021/01/10 01:56:25;;;;;;;11.68;1.52;;;;;;;;;;5031586;28;20025;-73
2021/01/10 01:58:57;;;;;;;7.72;1.48;;;;;;;;;;5032406;28;20049;-73
2021/01/10 02:01:24;;;;;;;9.27;2.08;;;;;;;;;;5029603;28;20018;-72
2021/01/10 02:03:50;;;;;;;6.95;1.58;;;;;;;;;;5026746;28;20087;-73
2021/01/10 02:06:23;;;;;;;9.25;1.33;;;;;;;;;;5032196;28;20041;-73
2021/01/10 02:08:51;;;;;;;12.40;1.50;;;;;;;;;;5031913;28;20048;-73
2021/01/10 02:11:17;;;;;;;5.13;1.00;;;;;;;;;;5024198;28;20057;-73
2021/01/10 02:13:44;;;;;;;6.97;1.13;;;;;;;;;;5027573;28;20021;-73
2021/01/10 02:16:10;;;;;;;9.43;1.33;;;;;;;;;;5030754;28;20029;-73
2021/01/10 02:18:37;;;;;;;4.05;1.00;;;;;;;;;;5032184;28;20040;-73
2021/01/10 02:21:06;;;;;;;6.43;1.50;;;;;;;;;;5029808;28;20022;-72
2021/01/10 02:23:33;;;;;;;7.50;1.48;;;;;;;;;;5027138;28;20445;-73
2021/01/10 02:26:00;;;;;;;7.28;1.50;;;;;;;;;;5031083;28;20021;-73
2021/01/10 02:28:28;;;;;;;4.43;1.17;;;;;;;;;;5031795;28;20022;-73
2021/01/10 02:30:56;;;;;;;4.57;0.90;;;;;;;;;;5029841;28;20022;-73
2021/01/10 02:33:31;;;;;;;13.50;1.33;;;;;;;;;;5028518;28;20033;-73
2021/01/10 02:35:57;;;;;;;3.72;0.95;;;;;;;;;;5029452;28;20028;-73
2021/01/10 02:38:26;;;;;;;5.78;1.10;;;;;;;;;;5031887;28;20240;-73
2021/01/10 02:41:01;;;;;;;4.82;1.02;;;;;;;;;;5039915;28;20026;-73
2021/01/10 02:43:28;;;;;;;7.93;1.75;;;;;;;;;;5027515;28;20056;-73
2021/01/10 02:45:55;;;;;;;9.95;1.02;;;;;;;;;;5030758;28;20041;-73
2021/01/10 02:48:21;;;;;;;4.88;1.00;;;;;;;;;;5030512;28;20022;-73
2021/01/10 02:50:47;;;;;;;9.38;3.17;;;;;;;;;;5031274;28;20030;-73
2021/01/10 02:53:13;;;;;;;6.70;1.02;;;;;;;;;;5028325;28;20036;-73
2021/01/10 02:55:39;;;;;;;5.93;0.80;;;;;;;;;;5031041;28;20021;-73
2021/01/10 02:58:11;;;;;;;10.35;1.48;;;;;;;;;;5030815;28;20072;-74
2021/01/10 03:00:38;;;;;;;6.32;0.82;;;;;;;;;;5031087;28;20025;-73
2021/01/10 03:03:05;;;;;;;4.68;0.65;;;;;;;;;;5028161;28;20080;-74
2021/01/10 03:05:33;;;;;;;8.05;1.42;;;;;;;;;;5029025;28;20041;-73
2021/01/10 03:08:00;;;;;;;5.38;1.52;;;;;;;;;;5028761;28;20240;-74
2021/01/10 03:10:26;;;;;;;6.13;2.40;;;;;;;;;;5030975;28;20022;-73
2021/01/10 03:12:52;;;;;;;6.97;1.15;;;;;;;;;;5029737;28;20025;-74
2021/01/10 03:15:18;;;;;;;6.50;0.90;;;;;;;;;;5034334;28;20022;-73
2021/01/10 03:17:45;;;;;;;5.97;0.93;;;;;;;;;;5030120;28;20071;-74
2021/01/10 03:20:12;;;;;;;6.47;0.90;;;;;;;;;;5031084;28;20022;-73
2021/01/10 03:22:38;;;;;;;6.75;1.20;;;;;;;;;;5027599;28;20026;-73
2021/01/10 03:25:05;;;;;;;5.28;1.27;;;;;;;;;;5029954;28;20124;-73
2021/01/10 03:27:33;;;;;;;6.63;1.00;;;;;;;;;;5028839;28;20030;-73
2021/01/10 03:29:59;;;;;;;5.97;0.88;;;;;;;;;;5031294;28;20449;-73
2021/01/10 03:32:25;;;;;;;9.68;1.27;;;;;;;;;;5027809;28;20025;-73
2021/01/10 03:34:51;;;;;;;6.20;1.30;;;;;;;;;;5028728;28;20032;-73
2021/01/10 03:37:17;;;;;;;7.78;1.17;;;;;;;;;;5022025;28;20083;-73
2021/01/10 03:39:43;;;;;;;8.05;0.73;;;;;;;;;;5030147;28;20022;-73
2021/01/10 03:42:09;;;;;;;7.38;0.90;;;;;;;;;;5027114;28;20776;-73
2021/01/10 03:44:35;;;;;;;5.63;0.90;;;;;;;;;;5030267;28;20017;-73
2021/01/10 03:47:02;;;;;;;7.47;0.82;;;;;;;;;;5030139;28;20040;-73
2021/01/10 03:49:28;;;;;;;10.45;1.13;;;;;;;;;;5025869;28;20034;-73
2021/01/10 03:51:54;;;;;;;4.78;0.88;;;;;;;;;;5027122;28;20025;-73
2021/01/10 03:54:20;;;;;;;7.78;2.13;;;;;;;;;;5029014;28;20030;-73
2021/01/10 03:56:46;;;;;;;7.32;0.85;;;;;;;;;;5030242;28;20029;-73
2021/01/10 03:59:12;;;;;;;12.85;1.15;;;;;;;;;;5030117;28;20101;-72
2021/01/10 04:01:38;;;;;;;5.63;0.88;;;;;;;;;;5030021;28;20045;-73
2021/01/10 04:04:04;;;;;;;6.70;0.82;;;;;;;;;;5028230;28;20504;-73
2021/01/10 04:06:30;;;;;;;6.20;0.70;;;;;;;;;;5030056;28;20096;-72
2021/01/10 04:08:56;;;;;;;5.05;0.80;;;;;;;;;;5029680;28;20043;-72
2021/01/10 04:11:23;;;;;;;7.72;1.20;;;;;;;;;;5030164;28;20536;-73
2021/01/10 04:13:49;;;;;;;6.50;0.70;;;;;;;;;;5026550;28;20021;-72
2021/01/10 04:16:15;;;;;;;4.63;1.08;;;;;;;;;;5030309;28;20036;-73
2021/01/10 04:18:41;;;;;;;5.40;0.73;;;;;;;;;;5029462;28;20029;-73
2021/01/10 04:21:08;;;;;;;8.50;1.02;;;;;;;;;;5030059;28;20087;-73
2021/01/10 04:23:34;;;;;;;9.18;1.10;;;;;;;;;;5026166;28;20021;-73
2021/01/10 04:26:00;;;;;;;11.23;0.80;;;;;;;;;;5030033;28;20105;-73
2021/01/10 04:28:26;;;;;;;7.95;0.82;;;;;;;;;;5029226;28;20037;-72
2021/01/10 04:30:52;;;;;;;4.18;0.52;;;;;;;;;;5030163;28;20025;-73
2021/01/10 04:33:18;;;;;;;5.95;0.80;;;;;;;;;;5026317;28;20112;-73
2021/01/10 04:35:44;;;;;;;3.47;0.80;;;;;;;;;;5028493;28;20460;-73
2021/01/10 04:38:10;;;;;;;5.93;0.98;;;;;;;;;;5036132;28;20028;-73
2021/01/10 04:40:36;;;;;;;12.10;0.85;;;;;;;;;;5032743;28;20152;-73
2021/01/10 04:43:02;;;;;;;7.50;1.08;;;;;;;;;;5030359;28;20687;-73
2021/01/10 04:45:29;;;;;;;9.25;1.45;;;;;;;;;;5034478;28;20014;-73
2021/01/10 04:47:55;;;;;;;6.55;1.00;;;;;;;;;;5032767;28;20022;-74
2021/01/10 04:50:23;;;;;;;6.68;1.08;;;;;;;;;;5033432;28;20033;-73
2021/01/10 04:52:52;;;;;;;5.55;0.70;;;;;;;;;;5028176;28;20218;-73
2021/01/10 04:55:20;;;;;;;6.68;0.77;;;;;;;;;;5039699;28;20025;-74
2021/01/10 04:57:46;;;;;;;4.90;0.93;;;;;;;;;;5036108;28;20025;-74
2021/01/10 05:00:13;;;;;;;7.35;1.08;;;;;;;;;;5032895;28;20048;-74
2021/01/10 05:02:45;;;;;;;8.73;0.95;;;;;;;;;;5030525;28;20402;-74
2021/01/10 05:05:12;;;;;;;12.75;1.08;;;;;;;;;;5032169;28;20702;-73
2021/01/10 05:07:38;;;;;;;10.70;2.90;;;;;;;;;;5032293;28;20394;-74
2021/01/10 05:10:04;;;;;;;8.38;1.30;;;;;;;;;;5031713;28;20398;-74
2021/01/10 05:12:30;;;;;;;11.27;1.23;;;;;;;;;;5030561;28;20049;-74
2021/01/10 05:14:56;;;;;;;13.02;1.42;;;;;;;;;;5033229;28;20017;-74
2021/01/10 05:17:22;;;;;;;10.27;1.35;;;;;;;;;;5031207;28;20029;-74
2021/01/10 05:19:49;;;;;;;9.88;1.45;;;;;;;;;;5032626;28;20501;-74
2021/01/10 05:22:16;;;;;;;8.50;1.65;;;;;;;;;;5030165;28;20048;-74
2021/01/10 05:24:43;;;;;;;11.07;1.35;;;;;;;;;;5031840;28;20677;-74
2021/01/10 05:27:09;;;;;;;4.80;1.20;;;;;;;;;;5030049;28;20025;-74
2021/01/10 05:29:35;;;;;;;8.55;1.85;;;;;;;;;;5032279;28;20040;-75
2021/01/10 05:32:02;;;;;;;8.38;1.48;;;;;;;;;;5029391;28;20237;-74
2021/01/10 05:34:28;;;;;;;6.43;1.10;;;;;;;;;;5033067;28;20112;-74
2021/01/10 05:36:56;;;;;;;14.40;1.60;;;;;;;;;;5030721;28;20064;-74
2021/01/10 05:39:26;;;;;;;9.80;1.35;;;;;;;;;;5033090;28;20489;-74
2021/01/10 05:41:57;;;;;;;6.30;0.93;;;;;;;;;;5030505;28;20013;-74
2021/01/10 05:44:24;;;;;;;4.00;0.90;;;;;;;;;;5031655;28;20033;-74
2021/01/10 05:47:00;;;;;;;10.10;1.25;;;;;;;;;;5023287;28;20820;-74
2021/01/10 05:49:27;;;;;;;9.05;1.05;;;;;;;;;;5030754;28;20022;-74
2021/01/10 05:51:54;;;;;;;9.95;1.27;;;;;;;;;;5030398;28;20025;-74
2021/01/10 05:54:39;;;;;;;13.25;1.40;;;;;;;;;;5030798;28;20025;-74
2021/01/10 05:57:06;;;;;;;5.47;1.10;;;;;;;;;;5031188;28;20022;-75
2021/01/10 05:59:37;;;;;;;8.40;1.25;;;;;;;;;;5030705;28;20055;-74
2021/01/10 06:02:03;;;;;;;3.90;1.08;;;;;;;;;;5029668;28;20056;-74
2021/01/10 06:04:30;;;;;;;11.55;2.10;;;;;;;;;;5035913;28;20505;-74
2021/01/10 06:06:59;;;;;;;8.13;1.30;;;;;;;;;;5031886;28;20045;-74
2021/01/10 06:09:25;;;;;;;11.27;1.30;;;;;;;;;;5031880;28;20021;-74
2021/01/10 06:11:51;;;;;;;9.65;1.52;;;;;;;;;;5030283;28;20490;-74
2021/01/10 06:14:24;;;;;;;9.55;1.20;;;;;;;;;;5030224;28;21389;-74
2021/01/10 06:16:55;;;;;;;7.43;1.13;;;;;;;;;;5030927;28;20022;-74
2021/01/10 06:19:25;;;;;;;8.52;1.15;;;;;;;;;;5031898;28;20028;-74
2021/01/10 06:21:51;;;;;;;4.78;1.38;;;;;;;;;;5030983;28;20426;-74
2021/01/10 06:24:18;;;;;;;3.58;1.10;;;;;;;;;;5030484;28;20040;-74
2021/01/10 06:26:49;;;;;;;11.02;1.25;;;;;;;;;;5031258;28;20021;-74
2021/01/10 06:29:17;;;;;;;5.22;1.15;;;;;;;;;;5020760;28;20021;-74
2021/01/10 06:31:46;;;;;;;7.57;1.15;;;;;;;;;;5031042;28;20037;-75
2021/01/10 06:34:12;;;;;;;9.95;1.00;;;;;;;;;;5029538;28;20524;-74
2021/01/10 06:36:40;;;;;;;9.38;1.83;;;;;;;;;;5030531;28;20109;-74
2021/01/10 06:39:10;;;;;;;9.50;1.45;;;;;;;;;;5031456;28;20025;-74
2021/01/10 06:41:36;;;;;;;13.68;1.75;;;;;;;;;;5028685;28;20108;-74
2021/01/10 06:44:08;;;;;;;9.60;1.33;;;;;;;;;;5028774;28;20033;-74
2021/01/10 06:46:35;;;;;;;6.68;1.13;;;;;;;;;;5030784;28;20032;-74
2021/01/10 06:49:01;;;;;;;6.88;1.40;;;;;;;;;;5030519;28;20100;-74
2021/01/10 06:51:29;;;;;;;5.80;1.20;;;;;;;;;;5029945;28;20025;-74
2021/01/10 06:53:55;;;;;;;5.75;1.38;;;;;;;;;;5029028;28;20044;-74
2021/01/10 06:56:23;;;;;;;7.40;1.23;;;;;;;;;;5031618;28;20523;-74
2021/01/10 06:59:07;;;;;;;10.30;1.58;;;;;;;;;;5028979;28;20025;-74
2021/01/10 07:01:48;;;;;;;14.02;1.30;;;;;;;;;;5030208;28;20045;-74
2021/01/10 07:04:14;;;;;;;13.75;1.60;;;;;;;;;;5028268;28;20021;-74
2021/01/10 07:06:50;;;;;;;10.70;1.55;;;;;;;;;;5029951;28;20045;-74
2021/01/10 07:09:17;;;;;;;5.40;1.20;;;;;;;;;;5031187;28;20033;-74
2021/01/10 07:11:43;;;;;;;6.32;1.58;;;;;;;;;;5030824;28;20029;-73
2021/01/10 07:14:09;;;;;;;7.35;2.00;;;;;;;;;;5028340;28;20037;-73
2021/01/10 07:16:36;;;;;;;9.27;1.70;;;;;;;;;;5031014;28;20041;-73
2021/01/10 07:19:03;;;;;;;11.15;1.38;;;;;;;;;;5028419;28;20112;-74
2021/01/10 07:21:33;;;;;;;5.07;1.40;;;;;;;;;;5031300;28;20025;-74
2021/01/10 07:24:20;;;;;;;7.50;1.55;;;;;;;;;;5027507;28;20313;-74
2021/01/10 07:26:46;;;;;;;3.90;1.15;;;;;;;;;;5029586;28;20028;-74
2021/01/10 07:29:26;;;;;;;7.43;1.27;;;;;;;;;;5029949;28;20049;-74
2021/01/10 07:31:58;;;;;;;3.22;1.00;;;;;;;;;;5026273;28;20029;-73
2021/01/10 07:34:25;;;;;;;6.05;1.38;;;;;;;;;;5029490;28;20032;-74
2021/01/10 07:36:52;;;;;;;9.20;1.45;;;;;;;;;;5030825;28;20025;-74
2021/01/10 07:39:19;;;;;;;7.20;1.33;;;;;;;;;;5023833;28;20021;-74
2021/01/10 07:41:45;;;;;;;2.83;1.05;;;;;;;;;;5020792;28;20489;-73
2021/01/10 07:44:11;;;;;;;5.07;1.50;;;;;;;;;;5023912;28;20033;-74
2021/01/10 07:46:59;;;;;;;6.55;1.30;;;;;;;;;;5027566;28;20036;-73
2021/01/10 07:49:27;;;;;;;8.40;1.45;;;;;;;;;;5025762;28;20032;-74
2021/01/10 07:51:53;;;;;;;7.63;1.52;;;;;;;;;;5019648;28;20017;-73
2021/01/10 07:54:39;;;;;;;5.13;1.17;;;;;;;;;;5018676;28;20512;-73
2021/01/10 07:57:22;;;;;;;7.97;1.45;;;;;;;;;;5027736;28;20021;-73
2021/01/10 08:00:04;;;;;;;8.13;1.63;;;;;;;;;;5025893;28;20510;-73
2021/01/10 08:02:45;;;;;;;8.80;1.23;;;;;;;;;;5023498;28;20401;-73
2021/01/10 08:05:15;;;;;;;8.05;1.20;;;;;;;;;;5020922;28;20121;-73
2021/01/10 08:07:51;;;;;;;5.85;1.40;;;;;;;;;;5024381;28;20128;-74
2021/01/10 08:10:18;;;;;;;7.30;1.40;;;;;;;;;;5026986;28;20021;-73
2021/01/10 08:12:44;;;;;;;5.30;1.40;;;;;;;;;;5025910;28;20025;-73
2021/01/10 08:15:11;;;;;;;8.68;2.00;;;;;;;;;;5029333;28;20038;-73
2021/01/10 08:17:38;;;;;;;6.22;1.40;;;;;;;;;;5025461;28;20567;-73
2021/01/10 08:20:08;;;;;;;3.65;1.60;;;;;;;;;;5035287;28;20022;-73
2021/01/10 08:22:34;;;;;;;10.10;2.22;;;;;;;;;;5025236;28;20064;-74
2021/01/10 08:25:01;;;;;;;8.57;2.63;;;;;;;;;;5029355;28;20025;-74
2021/01/10 08:27:27;;;;;;;6.85;2.58;;;;;;;;;;5028156;28;20033;-73
2021/01/10 08:29:54;;;;;;;9.30;3.08;;;;;;;;;;5028710;28;20034;-74
2021/01/10 08:32:20;;;;;;;7.85;4.18;;;;;;;;;;5013849;28;20041;-74
2021/01/10 08:34:59;;;;;;;12.75;3.88;;;;;;;;;;5027329;28;20051;-74
2021/01/10 08:37:25;;;;;;;16.10;3.72;;;;;;;;;;5027718;28;20048;-74
2021/01/10 08:40:02;;;;;;;10.20;3.25;;;;;;;;;;5023321;28;20494;-74
2021/01/10 08:42:29;;;;;;;12.38;3.05;;;;;;;;;;5025642;28;20029;-74
2021/01/10 08:44:55;;;;;;;7.78;2.40;;;;;;;;;;5030041;28;20022;-74
2021/01/10 08:47:21;;;;;;;8.05;2.38;;;;;;;;;;5026372;28;20033;-74
2021/01/10 08:49:57;;;;;;;7.35;2.35;;;;;;;;;;5028586;28;20040;-74
2021/01/10 08:52:23;;;;;;;7.97;2.53;;;;;;;;;;5017508;28;20029;-74
2021/01/10 08:54:52;;;;;;;7.45;2.30;;;;;;;;;;5007555;28;20038;-74
2021/01/10 08:57:18;;;;;;;6.53;2.08;;;;;;;;;;5006770;28;20029;-74
2021/01/10 08:59:44;;;;;;;7.78;2.05;;;;;;;;;;5009997;28;20037;-74
2021/01/10 09:02:11;;;;;;;4.32;1.58;;;;;;;;;;5010314;28;20307;-75
2021/01/10 09:04:41;;;;;;;8.50;2.13;;;;;;;;;;5027092;28;20026;-75
2021/01/10 09:07:10;;;;;;;5.05;2.10;;;;;;;;;;5016862;28;20128;-74
2021/01/10 09:09:43;;;;;;;8.93;2.10;;;;;;;;;;5026244;28;20052;-75
2021/01/10 09:12:09;;;;;;;13.63;2.78;;;;;;;;;;5040149;28;20203;-74
2021/01/10 09:14:55;;;;;;;6.55;1.85;;;;;;;;;;5027708;28;20108;-75
2021/01/10 09:17:35;;;;;;;13.63;2.67;;;;;;;;;;5028579;28;20105;-75
2021/01/10 09:20:03;;;;;;;7.20;2.05;;;;;;;;;;5024069;28;20048;-75
2021/01/10 09:22:30;;;;;;;8.93;2.30;;;;;;;;;;5019787;28;20029;-75
2021/01/10 09:24:56;;;;;;;10.00;2.72;;;;;;;;;;5031858;28;20071;-75
2021/01/10 09:27:23;;;;;;;9.27;2.63;;;;;;;;;;5034846;28;20025;-75
2021/01/10 09:29:49;;;;;;;11.38;2.15;;;;;;;;;;5032491;28;20485;-75
2021/01/10 09:32:21;;;;;;;13.23;2.30;;;;;;;;;;5030371;28;20053;-76
2021/01/10 09:34:54;;;;;;;10.60;3.47;;;;;;;;;;5029573;28;20033;-75
2021/01/10 09:37:20;;;;;;;14.35;2.95;;;;;;;;;;5030082;28;20026;-76
2021/01/10 09:39:46;;;;;;;14.75;3.08;;;;;;;;;;5031488;28;20052;-76
2021/01/10 09:42:12;;;;;;;10.05;3.03;;;;;;;;;;5028763;28;20224;-76
2021/01/10 09:44:39;;;;;;;11.23;2.78;;;;;;;;;;5030886;28;20041;-76
2021/01/10 09:47:05;;;;;;;7.28;2.45;;;;;;;;;;5028378;28;20083;-76
2021/01/10 09:49:32;;;;;;;10.23;2.95;;;;;;;;;;5030771;28;20135;-76
2021/01/10 09:52:02;;;;;;;6.47;2.78;;;;;;;;;;5024643;28;20064;-76
2021/01/10 09:54:28;;;;;;;7.85;3.25;;;;;;;;;;5028449;28;20022;-76
2021/01/10 09:57:02;;;;;;;9.73;2.88;;;;;;;;;;5026989;28;20538;-76
2021/01/10 09:59:35;;;;;;;9.75;2.33;;;;;;;;;;5027054;28;20088;-77
2021/01/10 10:02:01;;;;;;;7.85;2.70;;;;;;;;;;5028874;28;20029;-76
2021/01/10 10:04:28;;;;;;;9.05;2.22;;;;;;;;;;5026889;28;20005;-76
2021/01/10 10:06:54;;;;;;;6.22;2.28;;;;;;;;;;5028356;28;20056;-76
2021/01/10 10:09:20;;;;;;;9.25;2.53;;;;;;;;;;5031651;28;20030;-76
2021/01/10 10:11:46;;;;;;;7.55;2.40;;;;;;;;;;5026947;28;20033;-77
2021/01/10 10:14:13;;;;;;;6.65;2.42;;;;;;;;;;5029119;28;20513;-76
2021/01/10 10:16:41;;;;;;;6.65;2.00;;;;;;;;;;5027674;28;20028;-76
2021/01/10 10:19:07;;;;;;;5.65;2.25;;;;;;;;;;5029030;28;20435;-77
2021/01/10 10:21:33;;;;;;;7.03;2.30;;;;;;;;;;5024044;28;20033;-77
2021/01/10 10:23:59;;;;;;;5.13;1.92;;;;;;;;;;5022955;28;20025;-77
2021/01/10 10:26:25;;;;;;;4.93;1.88;;;;;;;;;;5031940;28;20631;-77
2021/01/10 10:28:51;;;;;;;8.00;2.35;;;;;;;;;;5028360;28;20048;-77
2021/01/10 10:31:24;;;;;;;8.00;1.65;;;;;;;;;;5020241;28;20413;-76
2021/01/10 10:33:50;;;;;;;7.88;1.90;;;;;;;;;;5025794;28;20032;-77
2021/01/10 10:36:20;;;;;;;7.03;2.05;;;;;;;;;;5027994;28;20029;-77
2021/01/10 10:38:46;;;;;;;6.05;2.05;;;;;;;;;;5017703;28;20292;-76
2021/01/10 10:41:12;;;;;;;5.10;1.95;;;;;;;;;;5021341;28;20272;-77
2021/01/10 10:43:38;;;;;;;5.07;1.77;;;;;;;;;;5013261;28;20569;-77
2021/01/10 10:46:04;;;;;;;5.95;1.73;;;;;;;;;;5028328;28;20411;-77
2021/01/10 10:48:30;;;;;;;7.00;2.63;;;;;;;;;;5025681;28;20510;-77
2021/01/10 10:50:56;;;;;;;8.70;2.25;;;;;;;;;;5018660;28;20041;-77
2021/01/10 10:53:23;;;;;;;7.47;2.45;;;;;;;;;;5022065;28;20044;-78
2021/01/10 10:55:50;;;;;;;9.32;2.80;;;;;;;;;;5023735;28;20022;-77
2021/01/10 10:58:16;;;;;;;10.00;2.90;;;;;;;;;;5026764;28;20025;-78
2021/01/10 11:00:42;;;;;;;10.18;3.40;;;;;;;;;;5028071;28;20052;-78
2021/01/10 11:03:08;;;;;;;7.45;2.55;;;;;;;;;;5024293;28;20073;-76
2021/01/10 11:05:34;;;;;;;6.00;2.60;;;;;;;;;;5024926;28;20018;-76
2021/01/10 11:08:00;;;;;;;5.68;2.70;;;;;;;;;;5016887;28;20471;-77
2021/01/10 11:10:27;;;;;;;7.50;2.45;;;;;;;;;;5026476;28;20038;-79
2021/01/10 11:12:53;;;;;;;6.25;2.45;;;;;;;;;;5028379;28;20022;-77
2021/01/10 11:15:19;;;;;;;13.27;2.75;;;;;;;;;;5029250;28;20029;-78
2021/01/10 11:17:45;;;;;;;10.43;2.92;;;;;;;;;;5029815;28;20063;-78
2021/01/10 11:20:11;;;;;;;10.40;3.30;;;;;;;;;;5029105;28;20030;-76
2021/01/10 11:22:37;;;;;;;8.13;2.75;;;;;;;;;;5026963;28;20029;-78
2021/01/10 11:25:04;;;;;;;6.32;2.38;;;;;;;;;;5030055;28;20319;-77
2021/01/10 11:27:30;;;;;;;11.20;3.17;;;;;;;;;;5029699;28;20052;-77
2021/01/10 11:29:56;;;;;;;6.78;2.67;;;;;;;;;;5030493;28;20025;-78
2021/01/10 11:32:22;;;;;;;8.82;2.75;;;;;;;;;;5026875;28;20116;-77
2021/01/10 11:34:50;;;;;;;9.80;2.70;;;;;;;;;;5029355;28;20029;-78
2021/01/10 11:37:16;;;;;;;5.13;2.42;;;;;;;;;;5029023;28;20583;-78
2021/01/10 11:39:42;;;;;;;5.53;2.50;;;;;;;;;;5029796;28;20032;-77
2021/01/10 11:42:13;;;;;;;6.45;2.00;;;;;;;;;;5027720;28;20060;-77
2021/01/10 11:44:39;;;;;;;7.40;2.53;;;;;;;;;;5030526;28;20025;-77
2021/01/10 11:47:05;;;;;;;6.95;1.98;;;;;;;;;;5028371;28;20044;-76
2021/01/10 11:49:31;;;;;;;6.07;2.40;;;;;;;;;;5029116;28;20029;-77
2021/01/10 11:51:59;;;;;;;7.28;2.63;;;;;;;;;;5026688;28;20490;-79
2021/01/10 11:54:25;;;;;;;7.45;2.42;;;;;;;;;;5026767;28;20033;-78
2021/01/10 11:56:51;;;;;;;8.45;2.70;;;;;;;;;;5028648;28;20038;-79
2021/01/10 11:59:17;;;;;;;6.95;2.47;;;;;;;;;;5030148;28;20037;-77
2021/01/10 12:01:44;;;;;;;7.10;2.20;;;;;;;;;;5025804;28;20032;-78
2021/01/10 12:04:10;;;;;;;6.72;2.60;;;;;;;;;;5021139;28;20029;-78
2021/01/10 12:06:37;;;;;;;7.32;2.65;;;;;;;;;;5015803;28;20173;-77
2021/01/10 12:09:08;;;;;;;7.35;2.70;;;;;;;;;;5024089;28;20168;-79
2021/01/10 12:11:34;;;;;;;11.95;2.67;;;;;;;;;;5029697;28;20118;-77
2021/01/10 12:14:01;;;;;;;3.67;1.33;;;;;;;;;;5022225;28;20044;-76
2021/01/10 12:16:27;;;;;;;9.68;2.65;;;;;;;;;;5024503;28;20100;-77
2021/01/10 12:18:53;;;;;;;5.80;2.35;;;;;;;;;;5019535;28;20115;-78
2021/01/10 12:21:19;;;;;;;6.70;2.72;;;;;;;;;;5019090;28;20026;-78
2021/01/10 12:23:45;;;;;;;7.72;3.03;;;;;;;;;;5010913;28;20040;-77
2021/01/10 12:26:15;;;;;;;5.05;2.13;;;;;;;;;;5028998;28;20029;-76
2021/01/10 12:28:42;;;;;;;6.53;2.92;;;;;;;;;;5027705;28;20032;-77
2021/01/10 12:31:08;;;;;;;6.07;2.20;;;;;;;;;;5029416;28;20033;-76
2021/01/10 12:33:34;;;;;;;5.28;1.90;;;;;;;;;;5019401;28;20065;-78
2021/01/10 12:36:04;;;;;;;4.97;2.40;;;;;;;;;;5025339;28;20041;-77
2021/01/10 12:38:30;;;;;;;4.93;1.90;;;;;;;;;;5029352;28;20034;-78
2021/01/10 12:40:56;;;;;;;5.70;2.60;;;;;;;;;;5028111;28;20034;-77
2021/01/10 12:43:22;;;;;;;5.10;2.03;;;;;;;;;;5038994;28;20029;-77
2021/01/10 12:45:48;;;;;;;7.65;2.67;;;;;;;;;;5024965;28;20030;-77
2021/01/10 12:48:17;;;;;;;6.40;2.22;;;;;;;;;;5027023;28;20351;-77
2021/01/10 12:50:43;;;;;;;8.10;3.10;;;;;;;;;;5028791;28;20040;-79
2021/01/10 12:53:09;;;;;;;7.90;2.53;;;;;;;;;;5025527;28;20053;-78
2021/01/10 12:55:36;;;;;;;7.97;3.25;;;;;;;;;;5027005;28;20025;-78
2021/01/10 12:58:03;;;;;;;8.10;3.08;;;;;;;;;;5025790;28;20176;-77
2021/01/10 13:00:29;;;;;;;9.60;3.20;;;;;;;;;;5023133;28;20037;-79
2021/01/10 13:02:55;;;;;;;11.02;3.45;;;;;;;;;;5028139;28;20034;-79
2021/01/10 13:05:21;;;;;;;11.30;3.45;;;;;;;;;;5028560;28;20318;-79
2021/01/10 13:07:48;;;;;;;7.45;3.15;;;;;;;;;;5032364;28;20075;-79
2021/01/10 13:10:14;;;;;;;6.78;2.42;;;;;;;;;;5022784;28;20037;-78
2021/01/10 13:12:40;;;;;;;9.07;3.17;;;;;;;;;;5024532;28;20509;-78
2021/01/10 13:15:07;;;;;;;8.35;3.13;;;;;;;;;;5027047;28;20046;-77
2021/01/10 13:17:33;;;;;;;6.15;2.58;;;;;;;;;;5030480;28;20029;-77
2021/01/10 13:19:59;;;;;;;7.22;2.97;;;;;;;;;;5031402;28;20799;-78
2021/01/10 13:22:25;;;;;;;8.00;3.13;;;;;;;;;;5027829;28;20474;-79
2021/01/10 13:24:51;;;;;;;7.38;3.03;;;;;;;;;;5023791;28;20021;-77
2021/01/10 13:27:18;;;;;;;8.57;2.53;;;;;;;;;;5032613;28;20029;-77
2021/01/10 13:29:44;;;;;;;8.32;2.58;;;;;;;;;;5028649;28;20029;-78
2021/01/10 13:32:10;;;;;;;7.60;2.83;;;;;;;;;;5024702;28;20404;-77
2021/01/10 13:34:36;;;;;;;6.13;2.65;;;;;;;;;;5028664;28;20033;-77
2021/01/10 13:37:02;;;;;;;6.25;2.80;;;;;;;;;;5030065;28;20021;-77
2021/01/10 13:39:29;;;;;;;8.88;3.30;;;;;;;;;;5029578;28;20018;-77
2021/01/10 13:41:55;;;;;;;9.30;3.90;;;;;;;;;;5025991;28;20151;-78
2021/01/10 13:44:22;;;;;;;6.95;3.10;;;;;;;;;;5031030;28;20481;-78
2021/01/10 13:46:48;;;;;;;8.65;3.58;;;;;;;;;;5019707;28;20029;-78
2021/01/10 13:49:14;;;;;;;10.73;5.13;;;;;;;;;;5024579;28;20053;-78
2021/01/10 13:51:40;;;;;;;13.13;5.38;;;;;;;;;;5023999;28;20029;-78
2021/01/10 13:54:06;;;;;;;12.10;5.75;;;;;;;;;;5016760;28;20034;-77
2021/01/10 13:56:32;;;;;;;10.27;5.38;;;;;;;;;;5031090;28;20536;-77
2021/01/10 13:58:58;;;;;;;13.50;3.63;;;;;;;;;;5021372;28;20521;-77
2021/01/10 14:01:31;;;;;;;5.65;2.63;;;;;;;;;;5025487;28;20470;-79
2021/01/10 14:03:58;;;;;;;11.35;4.38;;;;;;;;;;5039188;28;20440;-77
2021/01/10 14:06:25;;;;;;;7.38;3.47;;;;;;;;;;5030857;28;20050;-77
2021/01/10 14:08:53;;;;;;;7.47;3.60;;;;;;;;;;5023500;28;20021;-78
2021/01/10 14:11:20;;;;;;;11.52;3.90;;;;;;;;;;5026351;28;20065;-77
2021/01/10 14:13:49;;;;;;;8.25;3.80;;;;;;;;;;5025690;28;20029;-77
2021/01/10 14:16:18;;;;;;;8.80;4.10;;;;;;;;;;5028283;28;20021;-77
2021/01/10 14:18:45;;;;;;;10.63;5.03;;;;;;;;;;5027947;28;20026;-76
2021/01/10 14:21:21;;;;;;;11.07;4.85;;;;;;;;;;5027281;28;20040;-77
2021/01/10 14:23:47;;;;;;;9.23;3.97;;;;;;;;;;5021166;28;20022;-77
2021/01/10 14:26:13;;;;;;;13.45;5.10;;;;;;;;;;5027229;28;20177;-77
2021/01/10 14:28:39;;;;;;;11.45;4.85;;;;;;;;;;5028915;28;20033;-77
2021/01/10 14:31:05;;;;;;;24.50;6.22;;;;;;;;;;5029333;28;20516;-77
2021/01/10 14:33:31;;;;;;;12.90;4.82;;;;;;;;;;5022731;28;20401;-77
2021/01/10 14:35:57;;;;;;;10.13;5.95;;;;;;;;;;5030498;28;20371;-77
2021/01/10 14:38:23;;;;;;;10.60;5.40;;;;;;;;;;5031097;28;20021;-77
2021/01/10 14:40:49;;;;;;;11.25;5.40;;;;;;;;;;5029251;28;20017;-77
2021/01/10 14:43:15;;;;;;;10.48;4.70;;;;;;;;;;5025842;28;20040;-76